createdAt,value
2018-04-22T17:44:41.180Z,512.00
2018-04-22T17:45:41.185Z,492.00
2018-04-22T17:47:34.029Z,436.00
2018-04-22T17:48:34.021Z,400.00
2018-04-22T17:53:59.097Z,252.00
2018-04-22T17:54:59.434Z,228.00
2018-04-22T17:56:53.049Z,184.00
2018-04-22T17:57:52.943Z,164.00
2018-04-22T17:59:47.412Z,128.00
2018-04-22T18:00:50.109Z,112.00
2018-04-22T18:02:41.699Z,92.00
2018-04-22T18:03:41.686Z,80.00
2018-04-22T18:05:37.714Z,64.00
2018-04-22T18:06:37.748Z,56.00
2018-04-22T18:08:32.119Z,52.00
2018-04-22T18:09:32.173Z,44.00
2018-04-22T18:11:26.782Z,44.00
2018-04-22T18:12:27.968Z,40.00
2018-04-22T18:14:21.359Z,32.00
2018-04-22T18:15:21.277Z,24.00
2018-04-22T18:17:15.826Z,24.00
2018-04-22T18:18:15.721Z,20.00
2018-04-22T18:20:11.479Z,12.00
2018-04-22T18:21:11.401Z,12.00
2018-04-22T18:23:06.597Z,8.00
2018-04-22T18:24:05.774Z,12.00
2018-04-22T18:26:00.666Z,8.00
2018-04-22T18:27:00.691Z,8.00
2018-04-22T18:28:55.749Z,4.00
2018-04-22T18:29:55.346Z,8.00
2018-04-22T18:31:51.077Z,8.00
2018-04-22T18:32:50.651Z,4.00
2018-04-22T18:34:45.295Z,4.00
2018-04-22T18:35:45.222Z,4.00
2018-04-22T18:37:38.623Z,0.00
2018-04-22T18:38:39.190Z,0.00
2018-04-22T18:40:33.068Z,0.00
2018-04-22T18:41:33.074Z,4.00
2018-04-22T18:43:28.945Z,4.00
2018-04-22T18:44:28.954Z,0.00
2018-04-22T18:46:21.960Z,0.00
2018-04-22T18:47:21.865Z,0.00
2018-04-22T18:49:15.259Z,0.00
2018-04-22T18:50:15.264Z,0.00
2018-04-22T18:52:08.966Z,0.00
2018-04-22T18:53:08.969Z,0.00
2018-04-22T18:55:01.882Z,0.00
2018-04-22T18:56:01.905Z,0.00
2018-04-22T18:57:57.385Z,0.00
2018-04-22T18:58:56.827Z,0.00
2018-04-22T19:00:49.745Z,0.00
2018-04-22T19:01:49.931Z,0.00
2018-04-22T19:03:42.710Z,0.00
